createdAt,value
2018-08-12T00:02:14.925Z,96.40
2018-08-12T00:04:43.302Z,96.50
2018-08-12T00:07:11.646Z,96.40
2018-08-12T00:09:39.933Z,96.40
2018-08-12T00:12:08.191Z,96.50
2018-08-12T00:14:37.684Z,96.50
2018-08-12T00:17:06.035Z,96.50
2018-08-12T00:19:34.341Z,96.50
2018-08-12T00:22:02.691Z,96.50
2018-08-12T00:24:32.209Z,96.50
2018-08-12T00:27:00.507Z,96.50
2018-08-12T00:29:28.847Z,96.80
2018-08-12T00:31:57.264Z,96.50
2018-08-12T00:34:25.733Z,96.40
2018-08-12T00:36:54.030Z,96.40
2018-08-12T00:39:22.328Z,96.50
2018-08-12T00:41:50.628Z,96.50
2018-08-12T00:44:19.058Z,96.40
2018-08-12T00:46:47.366Z,96.40
2018-08-12T00:49:15.627Z,96.20
2018-08-12T00:51:43.917Z,96.30
2018-08-12T00:54:12.310Z,96.20
2018-08-12T00:56:41.289Z,96.00
2018-08-12T00:59:09.508Z,95.80
2018-08-12T01:01:37.896Z,95.80
2018-08-12T01:04:06.457Z,95.90
2018-08-12T01:06:34.733Z,95.70
2018-08-12T01:09:03.432Z,95.60
2018-08-12T01:11:31.914Z,95.60
2018-08-12T01:14:00.333Z,95.80
2018-08-12T01:16:28.628Z,95.50
2018-08-12T01:18:56.993Z,95.50
2018-08-12T01:21:25.422Z,95.50
2018-08-12T01:23:53.867Z,95.50
2018-08-12T01:26:22.210Z,95.40
2018-08-12T01:28:50.530Z,95.30
2018-08-12T01:31:18.891Z,95.30
2018-08-12T01:33:47.484Z,95.20
2018-08-12T01:36:15.797Z,95.20
2018-08-12T01:38:44.109Z,95.30
2018-08-12T01:41:12.383Z,95.30
2018-08-12T01:43:40.802Z,95.20
2018-08-12T01:46:09.121Z,95.30
2018-08-12T01:48:37.377Z,95.30
2018-08-12T01:51:05.714Z,95.20
2018-08-12T01:53:35.272Z,95.30
2018-08-12T01:56:03.606Z,95.30
2018-08-12T01:58:31.932Z,95.40
2018-08-12T02:01:00.279Z,95.50
2018-08-12T02:03:28.625Z,95.70
2018-08-12T02:05:56.906Z,96.20
2018-08-12T02:08:25.230Z,95.80
2018-08-12T02:10:53.562Z,95.90
2018-08-12T02:13:21.990Z,96.00
2018-08-12T02:15:50.347Z,96.00
2018-08-12T02:18:18.648Z,96.10
2018-08-12T02:20:46.901Z,95.80
2018-08-12T02:23:15.200Z,96.00
2018-08-12T02:25:43.429Z,96.00
2018-08-12T02:28:11.748Z,95.90
2018-08-12T02:30:40.005Z,95.90
2018-08-12T02:33:08.924Z,95.80
2018-08-12T02:35:37.208Z,95.80
2018-08-12T02:38:05.505Z,95.70
2018-08-12T02:40:33.771Z,95.70
2018-08-12T02:43:02.012Z,95.70
2018-08-12T02:45:30.435Z,95.70
2018-08-12T02:47:58.742Z,95.60
2018-08-12T02:50:27.047Z,95.50
2018-08-12T02:52:55.280Z,95.30
2018-08-12T02:55:23.539Z,95.30
2018-08-12T02:57:51.776Z,95.40
2018-08-12T03:00:23.081Z,95.30
2018-08-12T03:02:51.312Z,95.30
2018-08-12T03:05:19.702Z,95.30
2018-08-12T03:07:47.931Z,95.30
2018-08-12T03:10:16.211Z,95.50
2018-08-12T03:12:44.495Z,95.60
2018-08-12T03:15:13.013Z,95.60
2018-08-12T03:17:41.329Z,95.70
2018-08-12T03:20:11.072Z,95.60
2018-08-12T03:22:39.332Z,95.50
2018-08-12T03:25:09.171Z,95.50
2018-08-12T03:27:37.489Z,95.30
2018-08-12T03:30:06.631Z,95.20
2018-08-12T03:32:34.894Z,95.00
2018-08-12T03:35:04.271Z,95.20
2018-08-12T03:37:32.496Z,95.10
2018-08-12T03:40:00.748Z,95.20
2018-08-12T03:42:28.999Z,95.20
2018-08-12T03:45:00.476Z,95.20
2018-08-12T03:47:28.773Z,95.20
2018-08-12T03:49:57.079Z,95.30
2018-08-12T03:52:25.333Z,95.30
2018-08-12T03:54:53.782Z,95.20
2018-08-12T03:57:22.060Z,95.20
2018-08-12T03:59:50.268Z,95.20
2018-08-12T04:02:18.614Z,95.10
2018-08-12T04:04:47.047Z,95.10
2018-08-12T04:07:15.338Z,95.20
2018-08-12T04:09:43.601Z,95.20
2018-08-12T04:12:11.865Z,95.20
2018-08-12T04:14:40.205Z,95.20
2018-08-12T04:17:08.660Z,95.10
2018-08-12T04:19:36.910Z,95.40
2018-08-12T04:22:05.204Z,95.10
2018-08-12T04:24:34.499Z,95.10
2018-08-12T04:27:02.802Z,95.00
2018-08-12T04:29:31.103Z,95.10
2018-08-12T04:31:59.594Z,95.00
2018-08-12T04:34:28.044Z,94.90
2018-08-12T04:36:56.517Z,94.90
2018-08-12T04:39:24.830Z,95.00
2018-08-12T04:41:53.251Z,95.10
2018-08-12T04:44:21.537Z,95.10
2018-08-12T04:46:49.807Z,95.30
2018-08-12T04:49:18.735Z,95.30
2018-08-12T04:51:46.942Z,95.40
2018-08-12T04:54:15.228Z,95.40
2018-08-12T04:56:43.505Z,95.30
2018-08-12T04:59:11.751Z,95.30
2018-08-12T05:01:40.003Z,95.40
2018-08-12T05:04:09.989Z,95.50
2018-08-12T05:06:38.245Z,95.30
2018-08-12T05:09:08.828Z,95.30
2018-08-12T05:11:37.314Z,95.20
2018-08-12T05:14:05.980Z,95.00
2018-08-12T05:16:34.317Z,94.90
2018-08-12T05:19:02.624Z,94.80
2018-08-12T05:21:30.853Z,94.80
2018-08-12T05:23:59.261Z,94.90
2018-08-12T05:26:27.645Z,95.10
2018-08-12T05:28:56.094Z,95.20
2018-08-12T05:31:24.398Z,95.00
2018-08-12T05:33:52.834Z,95.00
2018-08-12T05:36:21.171Z,95.00
2018-08-12T05:38:49.431Z,95.40
2018-08-12T05:41:17.860Z,95.10
2018-08-12T05:43:46.314Z,95.30
2018-08-12T05:46:14.633Z,95.20
2018-08-12T05:48:42.927Z,95.10
2018-08-12T05:51:11.319Z,95.10
2018-08-12T05:53:39.591Z,95.10
2018-08-12T05:56:07.878Z,94.90
2018-08-12T05:58:36.243Z,94.80
2018-08-12T06:01:04.515Z,94.70
2018-08-12T06:03:32.953Z,94.50
2018-08-12T06:06:01.227Z,94.50
2018-08-12T06:08:29.498Z,94.40
2018-08-12T06:10:57.781Z,94.40
2018-08-12T06:13:26.365Z,94.50
2018-08-12T06:15:54.696Z,94.40
2018-08-12T06:18:23.024Z,94.40
2018-08-12T06:20:51.358Z,94.30
2018-08-12T06:23:19.738Z,94.10
2018-08-12T06:25:48.042Z,93.90
2018-08-12T06:28:16.360Z,93.80
2018-08-12T06:30:44.626Z,93.50
2018-08-12T06:33:13.023Z,93.50
2018-08-12T06:35:41.336Z,93.50
2018-08-12T06:38:09.615Z,93.50
2018-08-12T06:40:37.916Z,93.40
2018-08-12T06:43:06.247Z,93.40
2018-08-12T06:45:34.620Z,93.30
2018-08-12T06:48:02.870Z,93.20
2018-08-12T06:50:31.187Z,93.10
2018-08-12T06:52:59.451Z,93.00
2018-08-12T06:55:27.956Z,93.00
2018-08-12T06:57:56.238Z,92.60
2018-08-12T07:00:24.669Z,92.50
2018-08-12T07:02:52.968Z,92.50
2018-08-12T07:05:21.455Z,92.70
2018-08-12T07:07:49.736Z,92.50
2018-08-12T07:10:18.030Z,92.20
2018-08-12T07:12:46.365Z,92.20
2018-08-12T07:15:16.405Z,91.90
2018-08-12T07:17:45.642Z,91.70
2018-08-12T07:20:14.409Z,91.40
2018-08-12T07:22:42.862Z,91.30
2018-08-12T07:25:13.593Z,91.10
2018-08-12T07:27:42.714Z,90.90
2018-08-12T07:30:12.927Z,90.80
2018-08-12T07:32:41.354Z,90.70
2018-08-12T07:35:10.379Z,90.70
2018-08-12T07:37:39.062Z,90.90
2018-08-12T07:40:13.806Z,91.00
2018-08-12T07:42:42.176Z,91.10
2018-08-12T07:45:12.322Z,91.20
2018-08-12T07:47:41.198Z,91.00
2018-08-12T07:50:10.189Z,91.00
2018-08-12T07:52:38.825Z,91.20
2018-08-12T07:55:09.369Z,90.80
2018-08-12T07:57:37.663Z,90.80
2018-08-12T08:00:08.042Z,90.60
2018-08-12T08:02:36.308Z,90.10
2018-08-12T08:05:05.231Z,89.20
2018-08-12T08:07:33.716Z,89.30
2018-08-12T08:10:01.959Z,88.30
2018-08-12T08:12:30.342Z,87.60
2018-08-12T08:14:58.624Z,87.80
2018-08-12T08:17:26.917Z,88.20
2018-08-12T08:19:55.337Z,88.10
2018-08-12T08:22:23.558Z,87.90
2018-08-12T08:24:52.194Z,88.20
2018-08-12T08:27:20.586Z,87.80
2018-08-12T08:29:48.898Z,88.30
2018-08-12T08:32:17.361Z,87.70
2018-08-12T08:34:45.752Z,87.70
2018-08-12T08:37:14.068Z,87.70
2018-08-12T08:39:42.431Z,87.10
2018-08-12T08:42:10.797Z,87.40
2018-08-12T08:44:39.570Z,88.00
2018-08-12T08:47:07.932Z,86.30
2018-08-12T08:49:36.221Z,86.60
2018-08-12T08:52:04.520Z,87.10
2018-08-12T08:54:33.180Z,87.10
2018-08-12T08:57:01.700Z,87.70
2018-08-12T08:59:30.526Z,86.90
2018-08-12T09:01:58.894Z,87.30
2018-08-12T09:04:27.328Z,86.10
2018-08-12T09:06:55.653Z,85.30
2018-08-12T09:09:24.482Z,84.50
2018-08-12T09:11:52.763Z,81.80
2018-08-12T09:14:21.264Z,82.60
2018-08-12T09:16:49.620Z,81.90
2018-08-12T09:19:17.958Z,81.50
2018-08-12T09:21:46.264Z,81.70
2018-08-12T09:24:14.811Z,80.90
2018-08-12T09:26:43.142Z,80.80
2018-08-12T09:29:11.428Z,80.90
2018-08-12T09:31:39.735Z,80.40
2018-08-12T09:34:08.130Z,80.40
2018-08-12T09:36:37.134Z,80.10
2018-08-12T09:39:08.219Z,79.60
2018-08-12T09:41:36.521Z,80.20
2018-08-12T09:44:04.885Z,80.40
2018-08-12T09:46:33.234Z,80.60
2018-08-12T09:49:01.785Z,81.40
2018-08-12T09:51:30.373Z,81.00
2018-08-12T09:53:59.109Z,80.70
2018-08-12T09:56:27.553Z,79.90
2018-08-12T09:58:55.954Z,80.10
2018-08-12T10:01:24.324Z,80.10
2018-08-12T10:03:52.739Z,78.50
2018-08-12T10:06:21.742Z,77.80
2018-08-12T10:08:50.015Z,78.00
2018-08-12T10:11:18.369Z,78.30
2018-08-12T10:13:46.828Z,78.80
2018-08-12T10:16:15.190Z,79.40
2018-08-12T10:18:43.570Z,79.20
2018-08-12T10:21:11.900Z,79.40
2018-08-12T10:23:40.377Z,78.60
2018-08-12T10:26:08.711Z,78.30
2018-08-12T10:28:37.047Z,78.80
2018-08-12T10:33:45.886Z,77.00
2018-08-12T10:36:14.360Z,75.40
2018-08-12T10:38:42.685Z,76.00
2018-08-12T10:41:11.010Z,76.70
2018-08-12T10:43:39.467Z,76.50
2018-08-12T10:46:07.715Z,76.70
2018-08-12T10:48:36.014Z,76.90
2018-08-12T10:51:04.341Z,76.60
2018-08-12T10:53:33.746Z,76.50
2018-08-12T10:56:02.110Z,76.10
2018-08-12T10:58:30.467Z,75.20
2018-08-12T11:00:58.833Z,74.60
2018-08-12T11:03:27.303Z,75.00
2018-08-12T11:05:55.609Z,74.70
2018-08-12T11:08:23.890Z,74.20
2018-08-12T11:10:52.293Z,75.00
2018-08-12T11:13:20.782Z,74.70
2018-08-12T11:15:49.096Z,75.50
2018-08-12T11:18:18.229Z,74.70
2018-08-12T11:20:46.535Z,75.60
2018-08-12T11:23:14.884Z,74.30
2018-08-12T11:25:43.286Z,74.40
2018-08-12T11:28:11.588Z,73.60
2018-08-12T11:30:39.905Z,73.80
2018-08-12T11:33:08.335Z,73.90
2018-08-12T11:35:36.624Z,73.00
2018-08-12T11:38:04.980Z,73.30
2018-08-12T11:40:33.251Z,73.90
2018-08-12T11:43:01.534Z,74.00
2018-08-12T11:45:29.961Z,74.10
2018-08-12T11:47:58.269Z,74.00
2018-08-12T11:50:26.606Z,74.60
2018-08-12T11:52:54.912Z,75.40
2018-08-12T11:55:23.365Z,75.20
2018-08-12T11:57:51.574Z,74.30
2018-08-12T12:00:21.167Z,74.60
2018-08-12T12:02:50.605Z,74.30
2018-08-12T12:05:19.337Z,73.30
2018-08-12T12:07:48.158Z,73.20
2018-08-12T12:10:18.987Z,72.70
2018-08-12T12:12:48.664Z,72.00
2018-08-12T12:15:17.546Z,72.30
2018-08-12T12:17:46.530Z,71.30
2018-08-12T12:20:15.941Z,71.30
2018-08-12T12:22:44.964Z,72.00
2018-08-12T12:25:14.705Z,72.00
2018-08-12T12:27:43.434Z,72.30
2018-08-12T12:32:56.287Z,71.40
2018-08-12T12:35:24.665Z,70.60
2018-08-12T12:37:52.953Z,72.00
2018-08-12T12:40:21.232Z,71.80
2018-08-12T12:42:49.656Z,71.00
2018-08-12T12:45:18.314Z,71.10
2018-08-12T12:47:46.629Z,71.10
2018-08-12T12:50:18.646Z,71.10
2018-08-12T12:52:48.563Z,71.60
2018-08-12T12:55:19.927Z,71.00
2018-08-12T12:57:48.398Z,71.30
2018-08-12T13:00:17.987Z,71.70
2018-08-12T13:02:46.466Z,71.40
2018-08-12T13:05:16.182Z,71.50
2018-08-12T13:07:45.742Z,71.60
2018-08-12T13:10:15.003Z,70.40
2018-08-12T13:12:43.471Z,70.60
2018-08-12T13:15:12.644Z,70.80
2018-08-12T13:17:41.210Z,70.40
2018-08-12T13:20:12.522Z,69.20
2018-08-12T13:22:40.969Z,69.30
2018-08-12T13:25:12.368Z,69.20
2018-08-12T13:27:41.276Z,69.50
2018-08-12T13:30:10.731Z,69.10
2018-08-12T13:32:38.995Z,69.30
2018-08-12T13:35:08.419Z,69.60
2018-08-12T13:37:37.290Z,68.70
2018-08-12T13:40:07.259Z,68.90
2018-08-12T13:42:35.970Z,69.20
2018-08-12T13:45:04.850Z,69.00
2018-08-12T13:47:33.125Z,68.30
2018-08-12T13:50:02.668Z,68.90
2018-08-12T13:52:30.952Z,68.10
2018-08-12T13:54:59.266Z,68.20
2018-08-12T13:57:27.616Z,68.70
2018-08-12T13:59:55.900Z,69.40
2018-08-12T14:02:24.270Z,68.90
2018-08-12T14:04:52.835Z,68.40
2018-08-12T14:07:21.097Z,67.90
2018-08-12T14:09:49.412Z,67.80
2018-08-12T14:12:17.694Z,68.10
2018-08-12T14:14:46.048Z,68.50
2018-08-12T14:17:14.371Z,68.40
2018-08-12T14:19:42.667Z,67.90
2018-08-12T14:25:05.303Z,66.80
2018-08-12T14:27:33.629Z,67.00
2018-08-12T14:30:02.695Z,68.00
2018-08-12T14:32:31.332Z,68.20
2018-08-12T14:35:01.085Z,67.60
2018-08-12T14:37:29.699Z,66.30
2018-08-12T14:39:58.441Z,66.10
2018-08-12T14:42:27.078Z,65.70
2018-08-12T14:44:55.659Z,65.90
2018-08-12T14:47:24.089Z,66.50
2018-08-12T14:49:52.523Z,66.20
2018-08-12T14:52:20.976Z,65.90
2018-08-12T14:54:49.497Z,65.80
2018-08-12T14:57:17.812Z,65.70
2018-08-12T14:59:46.220Z,64.60
2018-08-12T15:02:14.550Z,65.60
2018-08-12T15:04:42.962Z,65.00
2018-08-12T15:07:11.338Z,64.90
2018-08-12T15:09:39.704Z,64.90
2018-08-12T15:12:08.016Z,64.70
2018-08-12T15:14:36.649Z,65.60
2018-08-12T15:17:05.035Z,66.10
2018-08-12T15:19:33.355Z,64.70
2018-08-12T15:22:01.717Z,63.90
2018-08-12T15:24:30.290Z,64.90
2018-08-12T15:26:58.748Z,64.30
2018-08-12T15:29:27.235Z,63.90
2018-08-12T15:31:55.539Z,64.40
2018-08-12T15:34:23.893Z,65.30
2018-08-12T15:36:52.243Z,65.70
2018-08-12T15:39:20.613Z,64.90
2018-08-12T15:41:49.129Z,64.70
2018-08-12T15:44:18.679Z,65.50
2018-08-12T15:46:47.571Z,64.40
2018-08-12T15:49:16.195Z,65.20
2018-08-12T15:51:44.645Z,64.90
2018-08-12T15:54:13.752Z,64.70
2018-08-12T15:56:42.255Z,64.70
2018-08-12T15:59:11.020Z,65.50
2018-08-12T16:01:40.140Z,65.90
2018-08-12T16:04:08.574Z,66.30
2018-08-12T16:06:36.904Z,66.40
2018-08-12T16:09:07.939Z,65.90
2018-08-12T16:11:36.210Z,66.00
2018-08-12T16:14:04.837Z,66.20
2018-08-12T16:16:33.144Z,66.30
2018-08-12T16:19:01.538Z,66.20
2018-08-12T16:21:29.835Z,65.90
2018-08-12T16:23:58.409Z,65.80
2018-08-12T16:26:26.677Z,66.60
2018-08-12T16:28:55.033Z,66.60
2018-08-12T16:31:23.403Z,66.30
2018-08-12T16:33:51.909Z,67.00
2018-08-12T16:36:20.524Z,66.70
2018-08-12T16:38:48.871Z,65.30
2018-08-12T16:41:17.197Z,65.90
2018-08-12T16:43:45.569Z,65.70
2018-08-12T16:46:13.852Z,65.70
2018-08-12T16:48:42.210Z,65.80
2018-08-12T16:51:10.486Z,66.10
2018-08-12T16:53:39.093Z,66.10
2018-08-12T16:56:07.397Z,65.70
2018-08-12T16:58:35.786Z,66.40
2018-08-12T17:01:04.171Z,66.90
2018-08-12T17:03:32.700Z,67.10
2018-08-12T17:06:01.078Z,66.80
2018-08-12T17:11:30.439Z,66.90
2018-08-12T17:13:58.893Z,67.30
2018-08-12T17:16:27.219Z,67.20
2018-08-12T17:18:55.518Z,66.90
2018-08-12T17:21:24.206Z,66.90
2018-08-12T17:23:53.304Z,67.10
2018-08-12T17:26:21.864Z,67.10
2018-08-12T17:28:50.905Z,66.30
2018-08-12T17:31:20.226Z,67.10
2018-08-12T17:33:48.970Z,66.70
2018-08-12T17:36:17.829Z,67.20
2018-08-12T17:38:46.618Z,67.10
2018-08-12T17:41:14.921Z,67.10
2018-08-12T17:43:43.314Z,68.70
2018-08-12T17:46:11.582Z,69.50
2018-08-12T17:48:39.837Z,70.00
2018-08-12T17:51:08.151Z,71.30
2018-08-12T17:53:36.663Z,72.00
2018-08-12T17:56:04.912Z,72.30
2018-08-12T17:58:33.422Z,72.80
2018-08-12T18:01:01.794Z,73.60
2018-08-12T18:03:30.155Z,73.70
2018-08-12T18:05:58.491Z,73.90
2018-08-12T18:08:26.998Z,73.90
2018-08-12T18:10:55.492Z,74.20
2018-08-12T18:13:24.389Z,74.60
2018-08-12T18:15:53.907Z,75.10
2018-08-12T18:18:22.871Z,75.60
2018-08-12T18:20:51.855Z,76.20
2018-08-12T18:23:20.842Z,76.40
2018-08-12T18:25:50.311Z,76.20
2018-08-12T18:28:18.970Z,76.70
2018-08-12T18:30:47.924Z,77.20
2018-08-12T18:33:16.429Z,77.80
2018-08-12T18:35:44.726Z,79.20
2018-08-12T18:38:13.042Z,78.30
2018-08-12T18:40:41.836Z,78.70
2018-08-12T18:43:11.055Z,78.80
2018-08-12T18:45:40.319Z,78.70
2018-08-12T18:48:09.489Z,78.30
2018-08-12T18:50:38.373Z,79.00
2018-08-12T18:53:07.821Z,79.60
2018-08-12T18:55:37.528Z,79.70
2018-08-12T18:58:05.812Z,80.50
2018-08-12T19:00:34.066Z,81.20
2018-08-12T19:03:02.374Z,81.40
2018-08-12T19:05:30.780Z,81.90
2018-08-12T19:07:59.217Z,82.20
2018-08-12T19:10:27.728Z,83.20
2018-08-12T19:12:55.982Z,82.80
2018-08-12T19:15:24.451Z,83.40
2018-08-12T19:17:52.759Z,83.80
2018-08-12T19:20:21.244Z,84.40
2018-08-12T19:22:49.537Z,85.50
2018-08-12T19:25:17.926Z,85.40
2018-08-12T19:27:46.239Z,88.50
2018-08-12T19:30:14.544Z,90.90
2018-08-12T19:32:42.877Z,91.20
2018-08-12T19:35:12.829Z,91.30
2018-08-12T19:37:41.200Z,91.30
2018-08-12T19:40:09.774Z,91.10
2018-08-12T19:42:38.260Z,91.10
2018-08-12T19:45:08.430Z,90.90
2018-08-12T19:47:36.773Z,90.90
2018-08-12T19:50:05.555Z,90.50
2018-08-12T19:52:33.832Z,90.40
2018-08-12T19:55:02.092Z,90.00
2018-08-12T19:57:30.374Z,90.00
2018-08-12T19:59:58.796Z,89.80
2018-08-12T20:02:27.067Z,90.20
2018-08-12T20:04:56.559Z,89.50
2018-08-12T20:07:24.941Z,89.00
2018-08-12T20:09:53.308Z,89.50
2018-08-12T20:12:21.696Z,88.30
2018-08-12T20:14:50.029Z,88.00
2018-08-12T20:17:18.275Z,88.10
2018-08-12T20:19:46.560Z,87.60
2018-08-12T20:22:16.000Z,87.50
2018-08-12T20:24:44.952Z,87.40
2018-08-12T20:27:13.512Z,87.50
2018-08-12T20:29:42.006Z,87.80
2018-08-12T20:32:10.420Z,88.10
2018-08-12T20:34:38.880Z,88.30
2018-08-12T20:37:07.119Z,88.30
2018-08-12T20:39:35.479Z,88.60
2018-08-12T20:42:03.684Z,88.80
2018-08-12T20:44:32.223Z,88.90
2018-08-12T20:47:00.534Z,88.60
2018-08-12T20:49:29.072Z,88.30
2018-08-12T20:51:57.499Z,87.60
2018-08-12T20:54:25.875Z,88.20
2018-08-12T20:56:54.294Z,87.60
2018-08-12T20:59:22.670Z,87.80
2018-08-12T21:01:51.044Z,87.30
2018-08-12T21:04:19.440Z,87.70
2018-08-12T21:06:47.707Z,87.00
2018-08-12T21:09:16.045Z,87.00
2018-08-12T21:11:44.343Z,86.70
2018-08-12T21:14:12.650Z,85.90
2018-08-12T21:16:40.945Z,85.70
2018-08-12T21:19:09.318Z,85.30
2018-08-12T21:21:37.635Z,85.80
2018-08-12T21:24:06.110Z,86.70
2018-08-12T21:26:35.212Z,86.50
2018-08-12T21:29:03.559Z,86.20
2018-08-12T21:31:31.954Z,85.70
2018-08-12T21:34:01.309Z,85.60
2018-08-12T21:36:29.781Z,86.00
2018-08-12T21:38:58.113Z,85.50
2018-08-12T21:41:26.460Z,85.70
2018-08-12T21:43:58.775Z,86.30
2018-08-12T21:46:27.047Z,87.50
2018-08-12T21:48:55.385Z,87.30
2018-08-12T21:51:23.703Z,87.40
2018-08-12T21:53:52.134Z,87.90
2018-08-12T21:56:20.466Z,87.80
2018-08-12T21:58:48.773Z,88.00
2018-08-12T22:01:17.171Z,88.30
2018-08-12T22:03:46.676Z,88.50
2018-08-12T22:06:15.005Z,88.80
2018-08-12T22:08:43.304Z,88.50
2018-08-12T22:11:11.599Z,88.50
2018-08-12T22:13:39.923Z,88.60
2018-08-12T22:16:08.223Z,89.00
2018-08-12T22:18:36.513Z,89.40
2018-08-12T22:21:04.813Z,89.70
2018-08-12T22:23:33.167Z,89.90
2018-08-12T22:26:01.470Z,90.10
2018-08-12T22:28:29.871Z,90.20
2018-08-12T22:30:58.205Z,90.20
2018-08-12T22:33:26.484Z,90.40
2018-08-12T22:35:54.768Z,90.60
2018-08-12T22:38:23.114Z,91.10
2018-08-12T22:40:51.547Z,91.30
2018-08-12T22:43:21.091Z,91.40
2018-08-12T22:45:49.344Z,91.30
2018-08-12T22:48:17.650Z,91.10
2018-08-12T22:50:45.962Z,91.00
2018-08-12T22:53:14.246Z,90.70
2018-08-12T22:55:42.574Z,90.60
2018-08-12T22:58:10.886Z,90.90
2018-08-12T23:00:39.548Z,90.90
2018-08-12T23:03:07.889Z,90.80
2018-08-12T23:05:36.127Z,90.70
2018-08-12T23:08:08.519Z,90.70
2018-08-12T23:10:37.235Z,90.50
2018-08-12T23:13:05.612Z,90.80
2018-08-12T23:16:43.720Z,90.40
2018-08-12T23:19:11.932Z,90.20
2018-08-12T23:21:40.210Z,90.00
2018-08-12T23:24:08.618Z,90.50
2018-08-12T23:26:36.915Z,90.10
2018-08-12T23:29:05.272Z,90.00
2018-08-12T23:31:33.546Z,90.10
2018-08-12T23:34:02.936Z,90.10
2018-08-12T23:36:31.245Z,90.10
2018-08-12T23:38:59.492Z,90.30
2018-08-12T23:41:27.740Z,90.30
2018-08-12T23:43:56.055Z,90.20
2018-08-12T23:46:24.276Z,90.00
2018-08-12T23:48:52.667Z,90.10
2018-08-12T23:51:20.974Z,90.30
2018-08-12T23:53:49.436Z,90.90
2018-08-12T23:56:17.682Z,90.70
2018-08-12T23:58:45.916Z,90.70
